Skip Navigation LinksHome page > Weather > Current weather Skip Navigation Links

Current Weather

San Francisco International, San Francisco

For information only: do not use for flight planning or navigation.
Latest weather
Observation time Saturday, April 30, 2016 4:56 AM PDT
Local time Saturday, April 30, 2016 6:05 AM PDT
Flight conditions Visual Meteorological Conditions
Winds
Wind direction West (280°)
Wind speed 13 mph
Visibility 10 mi.
Sky condition
Ceiling unlimited
Sky clear
Temperature 49°F
Dewpoint 43°F
Altimeter 29.93 in.Hg
Pressure change last 3 hours0.02 in.Hg
Pressure falling, then rising
Derived measurements
Relative humidity 80%
Wind chill 44°F
Density altitude -531 ft.
Sea-level pressure 29.93 in.Hg
Climate data
Temperature minimum, last 6 hours 49°F
Temperature maximum, last 6 hours 51°F
Remarks
Automated weather observing station with precipitation discriminator.
METAR KSFO 301156Z 28011KT 10SM CLR 09/06 A2993 RMK AO2 SLP136 T00940061 10106 20094 55006

Settings

Location code

InnerDrive.Weather 4.0.5722.1 Release CLR 4.0.30319.34209
Copyright ©2015 Inner Drive Technology. All rights reserved. Portions Copyright ©1986-2015 David Braverman.

Find weather

Site navigation


Skip Navigation Links

Place info

Page info

PayPal - The safer, easier way to pay online!

Return home.

Copyright ©2016 Inner Drive Technology. Purveyors of fine, hand-crafted computer software. Page printed 2016-04-30T13:05:57 UTC.